Terminal Aerodrome Forecast
Issued by NWS North Platte, NE

Home | Current Version | Previous Version | Text Only | Print | Product List | Glossary On
Versions: 1 2 3 4 5 6 7 8 9 10 11 12 13 14
000
FTUS43 KLBF 032320
TAFLBF
TAF
KLBF 032320Z 0400/0424 13007KT P6SM OVC200
     FM040500 VRB18G28KT P6SM VCTS SCT070CB BKN120
      TEMPO 0407/0409 5SM TSRA BKN050CB
     FM040900 VRB05KT P6SM SCT150=

USA.gov is the U.S. government's official web portal to all federal, state and local government web resources and services.